Ile Loop Chesterfield, New Caledonia
Current Conditions -  °F | °C
As of 10:30 AM on Sunday 26 Oct 2014 (Local Time) from NWWW Reporting Station
Few Clouds Few Clouds  
Wind Chill: 79°   Ceiling: Unl
Heat Index: 80°   Visibility: 6mi
Dew Point: 57°   Wind: 14mph
Humidity: 47%   Direction: 140°SE
Pressure: 30"   Gusts: NA
Location:  19.97°S, 158.52°E
Report Text: NWWW 252330Z AUTO 14012KT 9999 FEW049 26/14 Q1016
Loading
Personal Weather Stations






























Interactive Weather Map
Tropical Storm Tracking
New forecast layout! Learn more

10-Day Weather Forecast

Advertisements
Track Severe Weather on mobile